sensor_id;sensor_type;location;lat;lon;timestamp;temperature;humidity
11093;DHT22;5600;50.864;6.102;2022-09-16T00:01:52;14.00;99.90
11093;DHT22;5600;50.864;6.102;2022-09-16T00:04:53;14.00;99.90
11093;DHT22;5600;50.864;6.102;2022-09-16T00:07:54;14.00;99.90
11093;DHT22;5600;50.864;6.102;2022-09-16T00:10:59;14.00;99.90
11093;DHT22;5600;50.864;6.102;2022-09-16T00:14:01;14.00;99.90
11093;DHT22;5600;50.864;6.102;2022-09-16T00:17:02;14.00;99.90
11093;DHT22;5600;50.864;6.102;2022-09-16T00:20:03;13.90;99.90
11093;DHT22;5600;50.864;6.102;2022-09-16T00:23:04;13.80;99.90
11093;DHT22;5600;50.864;6.102;2022-09-16T00:26:05;13.80;99.90
11093;DHT22;5600;50.864;6.102;2022-09-16T00:29:06;13.80;99.90
11093;DHT22;5600;50.864;6.102;2022-09-16T00:32:07;13.80;99.90
11093;DHT22;5600;50.864;6.102;2022-09-16T00:35:08;13.70;99.90
11093;DHT22;5600;50.864;6.102;2022-09-16T00:38:08;13.70;99.90
11093;DHT22;5600;50.864;6.102;2022-09-16T00:41:17;13.70;99.90
11093;DHT22;5600;50.864;6.102;2022-09-16T00:45:00;13.70;99.90
11093;DHT22;5600;50.864;6.102;2022-09-16T00:48:07;13.70;99.90
11093;DHT22;5600;50.864;6.102;2022-09-16T00:51:10;13.70;99.90
11093;DHT22;5600;50.864;6.102;2022-09-16T00:54:12;13.70;99.90
11093;DHT22;5600;50.864;6.102;2022-09-16T00:57:14;13.80;99.90
11093;DHT22;5600;50.864;6.102;2022-09-16T01:00:15;13.70;99.90
11093;DHT22;5600;50.864;6.102;2022-09-16T01:03:18;13.70;99.90
11093;DHT22;5600;50.864;6.102;2022-09-16T01:06:20;13.70;99.90
11093;DHT22;5600;50.864;6.102;2022-09-16T01:09:23;13.70;99.90
11093;DHT22;5600;50.864;6.102;2022-09-16T01:12:27;13.70;99.90
11093;DHT22;5600;50.864;6.102;2022-09-16T01:16:00;13.70;99.90
11093;DHT22;5600;50.864;6.102;2022-09-16T01:39:31;13.40;99.90
11093;DHT22;5600;50.864;6.102;2022-09-16T01:43:00;13.40;99.90
11093;DHT22;5600;50.864;6.102;2022-09-16T01:46:29;13.40;99.90
11093;DHT22;5600;50.864;6.102;2022-09-16T01:56:23;13.20;99.90
11093;DHT22;5600;50.864;6.102;2022-09-16T01:59:46;13.10;99.90
11093;DHT22;5600;50.864;6.102;2022-09-16T02:03:15;13.10;99.90
11093;DHT22;5600;50.864;6.102;2022-09-16T02:06:21;13.20;99.90
11093;DHT22;5600;50.864;6.102;2022-09-16T02:09:28;13.20;99.90
11093;DHT22;5600;50.864;6.102;2022-09-16T02:12:34;13.10;99.90
11093;DHT22;5600;50.864;6.102;2022-09-16T02:15:38;13.20;99.90
11093;DHT22;5600;50.864;6.102;2022-09-16T02:18:41;13.20;99.90
11093;DHT22;5600;50.864;6.102;2022-09-16T02:21:44;13.30;99.90
11093;DHT22;5600;50.864;6.102;2022-09-16T02:24:47;13.30;99.90
11093;DHT22;5600;50.864;6.102;2022-09-16T02:27:48;13.30;99.90
11093;DHT22;5600;50.864;6.102;2022-09-16T02:30:53;13.30;99.90
11093;DHT22;5600;50.864;6.102;2022-09-16T02:34:08;13.30;99.90
11093;DHT22;5600;50.864;6.102;2022-09-16T02:37:28;13.20;99.90
11093;DHT22;5600;50.864;6.102;2022-09-16T02:40:36;13.20;99.90
11093;DHT22;5600;50.864;6.102;2022-09-16T02:43:44;13.20;99.90
11093;DHT22;5600;50.864;6.102;2022-09-16T02:46:56;13.20;99.90
11093;DHT22;5600;50.864;6.102;2022-09-16T02:50:22;13.20;99.90
11093;DHT22;5600;50.864;6.102;2022-09-16T02:56:54;13.20;99.90
11093;DHT22;5600;50.864;6.102;2022-09-16T02:59:56;13.10;99.90
11093;DHT22;5600;50.864;6.102;2022-09-16T03:02:57;13.10;99.90
11093;DHT22;5600;50.864;6.102;2022-09-16T03:06:21;13.10;99.90
11093;DHT22;5600;50.864;6.102;2022-09-16T03:09:22;13.10;99.90
11093;DHT22;5600;50.864;6.102;2022-09-16T03:12:52;13.10;99.90
11093;DHT22;5600;50.864;6.102;2022-09-16T03:20:02;13.10;99.90
11093;DHT22;5600;50.864;6.102;2022-09-16T03:23:29;13.00;99.90
11093;DHT22;5600;50.864;6.102;2022-09-16T03:30:09;13.00;99.90
11093;DHT22;5600;50.864;6.102;2022-09-16T03:33:26;12.90;99.90
11093;DHT22;5600;50.864;6.102;2022-09-16T03:36:32;12.80;99.90
11093;DHT22;5600;50.864;6.102;2022-09-16T03:39:35;12.80;99.90
11093;DHT22;5600;50.864;6.102;2022-09-16T03:42:42;12.80;99.90
11093;DHT22;5600;50.864;6.102;2022-09-16T03:45:43;12.70;99.90
11093;DHT22;5600;50.864;6.102;2022-09-16T03:48:44;12.70;99.90
11093;DHT22;5600;50.864;6.102;2022-09-16T03:51:45;12.70;99.90
11093;DHT22;5600;50.864;6.102;2022-09-16T03:54:45;12.60;99.90
11093;DHT22;5600;50.864;6.102;2022-09-16T03:57:46;12.60;99.90
11093;DHT22;5600;50.864;6.102;2022-09-16T04:00:50;12.50;99.90
11093;DHT22;5600;50.864;6.102;2022-09-16T04:03:51;12.50;99.90
11093;DHT22;5600;50.864;6.102;2022-09-16T04:06:51;12.40;99.90
11093;DHT22;5600;50.864;6.102;2022-09-16T04:09:52;12.40;99.90
11093;DHT22;5600;50.864;6.102;2022-09-16T04:12:56;12.30;99.90
11093;DHT22;5600;50.864;6.102;2022-09-16T04:15:58;12.30;99.90
11093;DHT22;5600;50.864;6.102;2022-09-16T04:18:59;12.40;99.90
11093;DHT22;5600;50.864;6.102;2022-09-16T04:22:01;12.50;99.90
11093;DHT22;5600;50.864;6.102;2022-09-16T04:25:02;12.50;99.90
11093;DHT22;5600;50.864;6.102;2022-09-16T04:28:04;12.40;99.90
11093;DHT22;5600;50.864;6.102;2022-09-16T04:31:08;12.30;99.90
11093;DHT22;5600;50.864;6.102;2022-09-16T04:34:09;12.30;99.90
11093;DHT22;5600;50.864;6.102;2022-09-16T04:37:13;12.20;99.90
11093;DHT22;5600;50.864;6.102;2022-09-16T04:40:14;12.20;99.90
11093;DHT22;5600;50.864;6.102;2022-09-16T04:43:15;12.30;99.90
11093;DHT22;5600;50.864;6.102;2022-09-16T04:46:16;12.20;99.90
11093;DHT22;5600;50.864;6.102;2022-09-16T04:49:17;12.30;99.90
11093;DHT22;5600;50.864;6.102;2022-09-16T04:52:17;12.30;99.90
11093;DHT22;5600;50.864;6.102;2022-09-16T04:55:18;12.30;99.90
11093;DHT22;5600;50.864;6.102;2022-09-16T04:58:22;12.30;99.90
11093;DHT22;5600;50.864;6.102;2022-09-16T05:01:28;12.30;99.90
11093;DHT22;5600;50.864;6.102;2022-09-16T05:04:29;12.40;99.90
11093;DHT22;5600;50.864;6.102;2022-09-16T05:07:29;12.40;99.90
11093;DHT22;5600;50.864;6.102;2022-09-16T05:10:30;12.50;99.90
11093;DHT22;5600;50.864;6.102;2022-09-16T05:13:31;12.60;99.90
11093;DHT22;5600;50.864;6.102;2022-09-16T05:16:32;12.70;99.90
11093;DHT22;5600;50.864;6.102;2022-09-16T05:19:33;12.60;99.90
11093;DHT22;5600;50.864;6.102;2022-09-16T05:22:34;12.60;99.90
11093;DHT22;5600;50.864;6.102;2022-09-16T05:25:35;12.60;99.90
11093;DHT22;5600;50.864;6.102;2022-09-16T05:28:36;12.60;99.90
11093;DHT22;5600;50.864;6.102;2022-09-16T05:31:39;12.70;99.90
11093;DHT22;5600;50.864;6.102;2022-09-16T05:34:40;12.70;99.90
11093;DHT22;5600;50.864;6.102;2022-09-16T05:37:40;12.70;99.90
11093;DHT22;5600;50.864;6.102;2022-09-16T05:40:42;12.60;99.90
11093;DHT22;5600;50.864;6.102;2022-09-16T05:43:43;12.70;99.90
11093;DHT22;5600;50.864;6.102;2022-09-16T05:46:44;12.80;99.90
11093;DHT22;5600;50.864;6.102;2022-09-16T05:49:45;12.80;99.90
11093;DHT22;5600;50.864;6.102;2022-09-16T05:52:45;12.90;99.90
11093;DHT22;5600;50.864;6.102;2022-09-16T05:56:06;12.90;99.90
11093;DHT22;5600;50.864;6.102;2022-09-16T05:59:10;13.00;99.90
11093;DHT22;5600;50.864;6.102;2022-09-16T06:02:11;13.00;99.90
11093;DHT22;5600;50.864;6.102;2022-09-16T06:05:12;13.00;99.90
11093;DHT22;5600;50.864;6.102;2022-09-16T06:08:13;13.00;99.90
11093;DHT22;5600;50.864;6.102;2022-09-16T06:11:14;13.00;99.90
11093;DHT22;5600;50.864;6.102;2022-09-16T06:14:16;13.00;99.90
11093;DHT22;5600;50.864;6.102;2022-09-16T06:17:17;13.00;99.90
11093;DHT22;5600;50.864;6.102;2022-09-16T06:20:18;12.90;99.90
11093;DHT22;5600;50.864;6.102;2022-09-16T06:23:20;12.90;99.90
11093;DHT22;5600;50.864;6.102;2022-09-16T06:26:24;12.90;99.90
11093;DHT22;5600;50.864;6.102;2022-09-16T06:29:25;12.90;99.90
11093;DHT22;5600;50.864;6.102;2022-09-16T06:32:30;12.90;99.90
11093;DHT22;5600;50.864;6.102;2022-09-16T06:35:32;12.90;99.90
11093;DHT22;5600;50.864;6.102;2022-09-16T06:38:33;12.90;99.90
11093;DHT22;5600;50.864;6.102;2022-09-16T06:41:34;13.00;99.90
11093;DHT22;5600;50.864;6.102;2022-09-16T06:44:35;13.10;99.90
11093;DHT22;5600;50.864;6.102;2022-09-16T06:47:36;13.10;99.90
11093;DHT22;5600;50.864;6.102;2022-09-16T06:50:36;13.10;99.90
11093;DHT22;5600;50.864;6.102;2022-09-16T06:53:37;13.10;99.90
11093;DHT22;5600;50.864;6.102;2022-09-16T06:56:38;13.10;99.90
11093;DHT22;5600;50.864;6.102;2022-09-16T06:59:40;13.10;99.90
11093;DHT22;5600;50.864;6.102;2022-09-16T07:02:41;13.10;99.90
11093;DHT22;5600;50.864;6.102;2022-09-16T07:05:42;13.10;99.90
11093;DHT22;5600;50.864;6.102;2022-09-16T07:08:43;13.10;99.90
11093;DHT22;5600;50.864;6.102;2022-09-16T07:11:44;13.10;99.90
11093;DHT22;5600;50.864;6.102;2022-09-16T07:14:44;13.30;99.90
11093;DHT22;5600;50.864;6.102;2022-09-16T07:17:45;13.40;99.90
11093;DHT22;5600;50.864;6.102;2022-09-16T07:20:47;13.40;99.90
11093;DHT22;5600;50.864;6.102;2022-09-16T07:23:48;13.50;99.90
11093;DHT22;5600;50.864;6.102;2022-09-16T07:26:48;13.50;99.90
11093;DHT22;5600;50.864;6.102;2022-09-16T07:29:49;13.50;99.90
11093;DHT22;5600;50.864;6.102;2022-09-16T07:32:50;13.50;99.90
11093;DHT22;5600;50.864;6.102;2022-09-16T07:35:51;13.50;99.90
11093;DHT22;5600;50.864;6.102;2022-09-16T07:38:54;13.60;99.90
11093;DHT22;5600;50.864;6.102;2022-09-16T07:41:56;13.60;99.90
11093;DHT22;5600;50.864;6.102;2022-09-16T07:44:57;13.60;99.90
11093;DHT22;5600;50.864;6.102;2022-09-16T07:47:58;13.60;99.90
11093;DHT22;5600;50.864;6.102;2022-09-16T07:51:05;13.60;99.90
11093;DHT22;5600;50.864;6.102;2022-09-16T07:54:10;13.60;99.90
11093;DHT22;5600;50.864;6.102;2022-09-16T07:57:11;13.70;99.90
11093;DHT22;5600;50.864;6.102;2022-09-16T08:00:12;13.70;99.90
11093;DHT22;5600;50.864;6.102;2022-09-16T08:03:13;13.70;99.90
11093;DHT22;5600;50.864;6.102;2022-09-16T08:06:20;13.60;99.90
11093;DHT22;5600;50.864;6.102;2022-09-16T08:09:21;13.60;99.90
11093;DHT22;5600;50.864;6.102;2022-09-16T08:12:22;13.60;99.90
11093;DHT22;5600;50.864;6.102;2022-09-16T08:15:23;13.60;99.90
11093;DHT22;5600;50.864;6.102;2022-09-16T08:18:23;13.70;99.90
11093;DHT22;5600;50.864;6.102;2022-09-16T08:21:26;13.80;99.90
11093;DHT22;5600;50.864;6.102;2022-09-16T08:24:27;14.00;99.90
11093;DHT22;5600;50.864;6.102;2022-09-16T08:27:28;14.20;99.90
11093;DHT22;5600;50.864;6.102;2022-09-16T08:30:29;14.20;99.90
11093;DHT22;5600;50.864;6.102;2022-09-16T08:33:31;14.30;99.90
11093;DHT22;5600;50.864;6.102;2022-09-16T08:36:32;14.40;99.90
11093;DHT22;5600;50.864;6.102;2022-09-16T08:39:33;14.50;99.90
11093;DHT22;5600;50.864;6.102;2022-09-16T08:43:04;14.50;99.90
11093;DHT22;5600;50.864;6.102;2022-09-16T08:46:30;14.50;99.90
11093;DHT22;5600;50.864;6.102;2022-09-16T08:52:39;14.60;99.90
11093;DHT22;5600;50.864;6.102;2022-09-16T08:55:45;14.80;99.90
11093;DHT22;5600;50.864;6.102;2022-09-16T08:58:51;15.00;99.90
11093;DHT22;5600;50.864;6.102;2022-09-16T09:08:38;14.80;99.90
11093;DHT22;5600;50.864;6.102;2022-09-16T09:12:02;14.70;99.90
11093;DHT22;5600;50.864;6.102;2022-09-16T09:18:39;14.70;99.90
11093;DHT22;5600;50.864;6.102;2022-09-16T09:35:21;14.90;99.90
11093;DHT22;5600;50.864;6.102;2022-09-16T09:41:51;15.00;99.90
11093;DHT22;5600;50.864;6.102;2022-09-16T09:45:15;15.10;99.90
11093;DHT22;5600;50.864;6.102;2022-09-16T09:48:26;15.20;99.90
11093;DHT22;5600;50.864;6.102;2022-09-16T09:51:35;15.20;99.90
11093;DHT22;5600;50.864;6.102;2022-09-16T09:54:38;15.20;99.90
11093;DHT22;5600;50.864;6.102;2022-09-16T09:57:51;15.10;99.90
11093;DHT22;5600;50.864;6.102;2022-09-16T10:00:55;15.10;99.90
11093;DHT22;5600;50.864;6.102;2022-09-16T10:03:57;15.10;99.90
11093;DHT22;5600;50.864;6.102;2022-09-16T10:06:59;15.20;99.90
11093;DHT22;5600;50.864;6.102;2022-09-16T10:10:11;15.50;99.90
11093;DHT22;5600;50.864;6.102;2022-09-16T10:13:13;15.70;99.90
11093;DHT22;5600;50.864;6.102;2022-09-16T10:16:17;15.80;99.90
11093;DHT22;5600;50.864;6.102;2022-09-16T10:19:22;16.00;99.90
11093;DHT22;5600;50.864;6.102;2022-09-16T10:22:31;16.10;99.90
11093;DHT22;5600;50.864;6.102;2022-09-16T10:25:33;16.00;99.90
11093;DHT22;5600;50.864;6.102;2022-09-16T10:28:34;16.00;99.90
11093;DHT22;5600;50.864;6.102;2022-09-16T10:31:36;16.10;99.90
11093;DHT22;5600;50.864;6.102;2022-09-16T10:34:39;16.50;99.90
11093;DHT22;5600;50.864;6.102;2022-09-16T10:38:12;16.70;99.90
11093;DHT22;5600;50.864;6.102;2022-09-16T10:41:21;16.70;99.90
11093;DHT22;5600;50.864;6.102;2022-09-16T10:44:28;16.80;99.90
11093;DHT22;5600;50.864;6.102;2022-09-16T10:47:31;16.80;99.90
11093;DHT22;5600;50.864;6.102;2022-09-16T10:50:33;16.60;99.90
11093;DHT22;5600;50.864;6.102;2022-09-16T10:53:39;16.30;99.90
11093;DHT22;5600;50.864;6.102;2022-09-16T10:56:48;16.00;99.90
11093;DHT22;5600;50.864;6.102;2022-09-16T11:00:11;15.60;99.90
11093;DHT22;5600;50.864;6.102;2022-09-16T11:10:37;15.00;99.90
11093;DHT22;5600;50.864;6.102;2022-09-16T11:20:43;14.80;99.90
11093;DHT22;5600;50.864;6.102;2022-09-16T11:24:04;14.80;99.90
11093;DHT22;5600;50.864;6.102;2022-09-16T11:30:27;14.60;99.90
11093;DHT22;5600;50.864;6.102;2022-09-16T11:33:48;13.90;99.90
11093;DHT22;5600;50.864;6.102;2022-09-16T11:37:08;13.20;99.90
11093;DHT22;5600;50.864;6.102;2022-09-16T11:43:37;12.60;99.90
11093;DHT22;5600;50.864;6.102;2022-09-16T11:46:54;12.50;99.90
11093;DHT22;5600;50.864;6.102;2022-09-16T11:50:15;12.70;99.90
11093;DHT22;5600;50.864;6.102;2022-09-16T12:03:00;13.30;99.90
11093;DHT22;5600;50.864;6.102;2022-09-16T12:06:10;13.40;99.90
11093;DHT22;5600;50.864;6.102;2022-09-16T12:09:16;13.50;99.90
11093;DHT22;5600;50.864;6.102;2022-09-16T12:12:22;13.90;99.90
11093;DHT22;5600;50.864;6.102;2022-09-16T12:21:38;14.90;99.90
11093;DHT22;5600;50.864;6.102;2022-09-16T12:24:56;14.30;99.90
11093;DHT22;5600;50.864;6.102;2022-09-16T12:28:02;13.60;99.90
11093;DHT22;5600;50.864;6.102;2022-09-16T12:31:31;13.00;99.90
11093;DHT22;5600;50.864;6.102;2022-09-16T12:34:45;12.60;99.90
11093;DHT22;5600;50.864;6.102;2022-09-16T12:37:49;12.00;99.90
11093;DHT22;5600;50.864;6.102;2022-09-16T12:51:15;11.30;99.90
11093;DHT22;5600;50.864;6.102;2022-09-16T12:54:45;11.20;99.90
11093;DHT22;5600;50.864;6.102;2022-09-16T13:01:27;11.20;99.90
11093;DHT22;5600;50.864;6.102;2022-09-16T13:04:39;11.20;99.90
11093;DHT22;5600;50.864;6.102;2022-09-16T13:07:40;11.40;99.90
11093;DHT22;5600;50.864;6.102;2022-09-16T13:10:41;11.80;99.90
11093;DHT22;5600;50.864;6.102;2022-09-16T13:13:47;12.20;99.90
11093;DHT22;5600;50.864;6.102;2022-09-16T13:16:57;12.70;99.90
11093;DHT22;5600;50.864;6.102;2022-09-16T13:20:21;13.10;99.90
11093;DHT22;5600;50.864;6.102;2022-09-16T13:23:26;13.50;99.90
11093;DHT22;5600;50.864;6.102;2022-09-16T13:26:43;13.90;99.90
11093;DHT22;5600;50.864;6.102;2022-09-16T13:29:44;14.20;99.90
11093;DHT22;5600;50.864;6.102;2022-09-16T13:33:00;14.40;99.90
11093;DHT22;5600;50.864;6.102;2022-09-16T13:39:30;14.40;99.90
11093;DHT22;5600;50.864;6.102;2022-09-16T13:42:31;14.20;99.90
11093;DHT22;5600;50.864;6.102;2022-09-16T13:45:41;14.00;99.90
11093;DHT22;5600;50.864;6.102;2022-09-16T13:48:46;13.90;99.90
11093;DHT22;5600;50.864;6.102;2022-09-16T13:51:51;13.80;99.90
11093;DHT22;5600;50.864;6.102;2022-09-16T13:54:54;13.90;99.90
11093;DHT22;5600;50.864;6.102;2022-09-16T13:58:37;14.10;99.90
11093;DHT22;5600;50.864;6.102;2022-09-16T14:09:27;14.80;99.90
11093;DHT22;5600;50.864;6.102;2022-09-16T14:16:02;15.70;99.90
11093;DHT22;5600;50.864;6.102;2022-09-16T14:19:27;15.80;99.90
11093;DHT22;5600;50.864;6.102;2022-09-16T14:22:31;16.00;99.90
11093;DHT22;5600;50.864;6.102;2022-09-16T14:25:35;16.20;99.90
11093;DHT22;5600;50.864;6.102;2022-09-16T14:28:36;16.30;99.90
11093;DHT22;5600;50.864;6.102;2022-09-16T14:31:37;16.20;99.90
11093;DHT22;5600;50.864;6.102;2022-09-16T14:34:38;16.10;99.90
11093;DHT22;5600;50.864;6.102;2022-09-16T14:37:39;15.90;99.90
11093;DHT22;5600;50.864;6.102;2022-09-16T14:40:43;15.80;99.90
11093;DHT22;5600;50.864;6.102;2022-09-16T14:43:44;15.90;99.90
11093;DHT22;5600;50.864;6.102;2022-09-16T14:49:53;15.80;99.90
11093;DHT22;5600;50.864;6.102;2022-09-16T14:53:06;15.70;99.90
11093;DHT22;5600;50.864;6.102;2022-09-16T14:56:17;15.40;99.90
11093;DHT22;5600;50.864;6.102;2022-09-16T14:59:19;15.10;99.90
11093;DHT22;5600;50.864;6.102;2022-09-16T15:02:39;14.30;99.90
11093;DHT22;5600;50.864;6.102;2022-09-16T15:05:44;13.40;99.90
11093;DHT22;5600;50.864;6.102;2022-09-16T15:08:57;12.80;99.90
11093;DHT22;5600;50.864;6.102;2022-09-16T15:12:00;12.30;99.90
11093;DHT22;5600;50.864;6.102;2022-09-16T15:15:13;12.10;99.90
11093;DHT22;5600;50.864;6.102;2022-09-16T15:18:29;11.90;99.90
11093;DHT22;5600;50.864;6.102;2022-09-16T15:21:34;11.60;99.90
11093;DHT22;5600;50.864;6.102;2022-09-16T15:24:39;11.80;99.90
11093;DHT22;5600;50.864;6.102;2022-09-16T15:27:40;11.80;99.90
11093;DHT22;5600;50.864;6.102;2022-09-16T15:30:53;11.80;99.90
11093;DHT22;5600;50.864;6.102;2022-09-16T15:33:55;11.90;99.90
11093;DHT22;5600;50.864;6.102;2022-09-16T15:36:57;11.90;99.90
11093;DHT22;5600;50.864;6.102;2022-09-16T15:43:32;12.20;99.90
11093;DHT22;5600;50.864;6.102;2022-09-16T15:46:34;12.30;99.90
11093;DHT22;5600;50.864;6.102;2022-09-16T15:49:38;12.20;99.90
11093;DHT22;5600;50.864;6.102;2022-09-16T15:53:06;12.20;99.90
11093;DHT22;5600;50.864;6.102;2022-09-16T15:56:24;12.30;99.90
11093;DHT22;5600;50.864;6.102;2022-09-16T15:59:54;12.20;99.90
11093;DHT22;5600;50.864;6.102;2022-09-16T16:03:00;12.20;99.90
11093;DHT22;5600;50.864;6.102;2022-09-16T16:06:04;12.00;99.90
11093;DHT22;5600;50.864;6.102;2022-09-16T16:09:05;11.90;99.90
11093;DHT22;5600;50.864;6.102;2022-09-16T16:12:11;11.90;99.90
11093;DHT22;5600;50.864;6.102;2022-09-16T16:15:17;11.90;99.90
11093;DHT22;5600;50.864;6.102;2022-09-16T16:18:18;11.80;99.90
11093;DHT22;5600;50.864;6.102;2022-09-16T16:21:19;11.70;99.90
11093;DHT22;5600;50.864;6.102;2022-09-16T16:24:20;11.80;99.90
11093;DHT22;5600;50.864;6.102;2022-09-16T16:27:21;11.80;99.90
11093;DHT22;5600;50.864;6.102;2022-09-16T16:30:22;11.70;99.90
11093;DHT22;5600;50.864;6.102;2022-09-16T16:33:23;11.70;99.90
11093;DHT22;5600;50.864;6.102;2022-09-16T16:36:24;11.60;99.90
11093;DHT22;5600;50.864;6.102;2022-09-16T16:39:24;11.70;99.90
11093;DHT22;5600;50.864;6.102;2022-09-16T16:42:25;11.60;99.90
11093;DHT22;5600;50.864;6.102;2022-09-16T16:45:28;11.60;99.90
11093;DHT22;5600;50.864;6.102;2022-09-16T16:48:29;11.60;99.90
11093;DHT22;5600;50.864;6.102;2022-09-16T16:51:30;11.60;99.90
11093;DHT22;5600;50.864;6.102;2022-09-16T16:54:31;11.60;99.90
11093;DHT22;5600;50.864;6.102;2022-09-16T16:57:32;11.70;99.90
11093;DHT22;5600;50.864;6.102;2022-09-16T17:00:33;11.70;99.90
11093;DHT22;5600;50.864;6.102;2022-09-16T17:03:33;11.70;99.90
11093;DHT22;5600;50.864;6.102;2022-09-16T17:06:34;11.60;99.90
11093;DHT22;5600;50.864;6.102;2022-09-16T17:09:36;11.60;99.90
11093;DHT22;5600;50.864;6.102;2022-09-16T17:12:37;11.60;99.90
11093;DHT22;5600;50.864;6.102;2022-09-16T17:15:38;11.60;99.90
11093;DHT22;5600;50.864;6.102;2022-09-16T17:18:40;11.50;99.90
11093;DHT22;5600;50.864;6.102;2022-09-16T17:21:41;11.40;99.90
11093;DHT22;5600;50.864;6.102;2022-09-16T17:24:42;11.30;99.90
11093;DHT22;5600;50.864;6.102;2022-09-16T17:27:42;11.30;99.90
11093;DHT22;5600;50.864;6.102;2022-09-16T17:30:43;11.20;99.90
11093;DHT22;5600;50.864;6.102;2022-09-16T17:33:44;11.20;99.90
11093;DHT22;5600;50.864;6.102;2022-09-16T17:36:45;11.10;99.90
11093;DHT22;5600;50.864;6.102;2022-09-16T17:39:46;11.10;99.90
11093;DHT22;5600;50.864;6.102;2022-09-16T17:42:51;11.10;99.90
11093;DHT22;5600;50.864;6.102;2022-09-16T17:45:52;11.10;99.90
11093;DHT22;5600;50.864;6.102;2022-09-16T17:48:58;11.00;99.90
11093;DHT22;5600;50.864;6.102;2022-09-16T17:51:59;11.00;99.90
11093;DHT22;5600;50.864;6.102;2022-09-16T17:55:01;10.90;99.90
11093;DHT22;5600;50.864;6.102;2022-09-16T17:58:01;10.90;99.90
11093;DHT22;5600;50.864;6.102;2022-09-16T18:01:17;10.90;99.90
11093;DHT22;5600;50.864;6.102;2022-09-16T18:04:18;10.80;99.90
11093;DHT22;5600;50.864;6.102;2022-09-16T18:07:19;10.80;99.90
11093;DHT22;5600;50.864;6.102;2022-09-16T18:10:19;10.80;99.90
11093;DHT22;5600;50.864;6.102;2022-09-16T18:13:20;10.80;99.90
11093;DHT22;5600;50.864;6.102;2022-09-16T18:16:21;10.80;99.90
11093;DHT22;5600;50.864;6.102;2022-09-16T18:19:22;10.80;99.90
11093;DHT22;5600;50.864;6.102;2022-09-16T18:22:23;10.70;99.90
11093;DHT22;5600;50.864;6.102;2022-09-16T18:25:23;10.70;99.90
11093;DHT22;5600;50.864;6.102;2022-09-16T18:28:25;10.70;99.90
11093;DHT22;5600;50.864;6.102;2022-09-16T18:31:25;10.60;99.90
11093;DHT22;5600;50.864;6.102;2022-09-16T18:34:26;10.70;99.90
11093;DHT22;5600;50.864;6.102;2022-09-16T18:37:27;10.70;99.90
11093;DHT22;5600;50.864;6.102;2022-09-16T18:40:28;10.70;99.90
11093;DHT22;5600;50.864;6.102;2022-09-16T18:43:28;10.70;99.90
11093;DHT22;5600;50.864;6.102;2022-09-16T18:46:33;10.70;99.90
11093;DHT22;5600;50.864;6.102;2022-09-16T18:49:34;10.70;99.90
11093;DHT22;5600;50.864;6.102;2022-09-16T18:52:34;10.70;99.90
11093;DHT22;5600;50.864;6.102;2022-09-16T18:55:35;10.70;99.90
11093;DHT22;5600;50.864;6.102;2022-09-16T18:58:36;10.70;99.90
11093;DHT22;5600;50.864;6.102;2022-09-16T19:01:37;10.70;99.90
11093;DHT22;5600;50.864;6.102;2022-09-16T19:04:40;10.70;99.90
11093;DHT22;5600;50.864;6.102;2022-09-16T19:07:41;10.70;99.90
11093;DHT22;5600;50.864;6.102;2022-09-16T19:10:42;10.70;99.90
11093;DHT22;5600;50.864;6.102;2022-09-16T19:13:43;10.70;99.90
11093;DHT22;5600;50.864;6.102;2022-09-16T19:16:44;10.70;99.90
11093;DHT22;5600;50.864;6.102;2022-09-16T19:19:45;10.70;99.90
11093;DHT22;5600;50.864;6.102;2022-09-16T19:22:50;10.60;99.90
11093;DHT22;5600;50.864;6.102;2022-09-16T19:25:51;10.60;99.90
11093;DHT22;5600;50.864;6.102;2022-09-16T19:28:53;10.60;99.90
11093;DHT22;5600;50.864;6.102;2022-09-16T19:31:53;10.60;99.90
11093;DHT22;5600;50.864;6.102;2022-09-16T19:34:54;10.60;99.90
11093;DHT22;5600;50.864;6.102;2022-09-16T19:37:55;10.50;99.90
11093;DHT22;5600;50.864;6.102;2022-09-16T19:41:03;10.50;99.90
11093;DHT22;5600;50.864;6.102;2022-09-16T19:44:06;10.50;99.90
11093;DHT22;5600;50.864;6.102;2022-09-16T19:47:07;10.40;99.90
11093;DHT22;5600;50.864;6.102;2022-09-16T19:50:08;10.40;99.90
11093;DHT22;5600;50.864;6.102;2022-09-16T19:53:11;10.40;99.90
11093;DHT22;5600;50.864;6.102;2022-09-16T19:56:15;10.40;99.90
11093;DHT22;5600;50.864;6.102;2022-09-16T19:59:16;10.40;99.90
11093;DHT22;5600;50.864;6.102;2022-09-16T20:02:17;10.40;99.90
11093;DHT22;5600;50.864;6.102;2022-09-16T20:05:17;10.40;99.90
11093;DHT22;5600;50.864;6.102;2022-09-16T20:08:18;10.40;99.90
11093;DHT22;5600;50.864;6.102;2022-09-16T20:11:22;10.40;99.90
11093;DHT22;5600;50.864;6.102;2022-09-16T20:14:23;10.40;99.90
11093;DHT22;5600;50.864;6.102;2022-09-16T20:17:32;10.30;99.90
11093;DHT22;5600;50.864;6.102;2022-09-16T20:20:35;10.30;99.90
11093;DHT22;5600;50.864;6.102;2022-09-16T20:23:37;10.30;99.90
11093;DHT22;5600;50.864;6.102;2022-09-16T20:26:37;10.30;99.90
11093;DHT22;5600;50.864;6.102;2022-09-16T20:29:38;10.30;99.90
11093;DHT22;5600;50.864;6.102;2022-09-16T20:32:39;10.30;99.90
11093;DHT22;5600;50.864;6.102;2022-09-16T20:35:39;10.30;99.90
11093;DHT22;5600;50.864;6.102;2022-09-16T20:38:41;10.30;99.90
11093;DHT22;5600;50.864;6.102;2022-09-16T20:41:42;10.30;99.90
11093;DHT22;5600;50.864;6.102;2022-09-16T20:44:45;10.30;99.90
11093;DHT22;5600;50.864;6.102;2022-09-16T20:47:49;10.30;99.90
11093;DHT22;5600;50.864;6.102;2022-09-16T20:50:51;10.30;99.90
11093;DHT22;5600;50.864;6.102;2022-09-16T20:53:57;10.30;99.90
11093;DHT22;5600;50.864;6.102;2022-09-16T20:56:58;10.30;99.90
11093;DHT22;5600;50.864;6.102;2022-09-16T20:59:59;10.30;99.90
11093;DHT22;5600;50.864;6.102;2022-09-16T21:03:00;10.30;99.90
11093;DHT22;5600;50.864;6.102;2022-09-16T21:06:06;10.30;99.90
11093;DHT22;5600;50.864;6.102;2022-09-16T21:09:09;10.30;99.90
11093;DHT22;5600;50.864;6.102;2022-09-16T21:12:11;10.30;99.90
11093;DHT22;5600;50.864;6.102;2022-09-16T21:15:12;10.30;99.90
11093;DHT22;5600;50.864;6.102;2022-09-16T21:18:12;10.30;99.90
11093;DHT22;5600;50.864;6.102;2022-09-16T21:21:15;10.30;99.90
11093;DHT22;5600;50.864;6.102;2022-09-16T21:24:17;10.30;99.90
11093;DHT22;5600;50.864;6.102;2022-09-16T21:27:17;10.30;99.90
11093;DHT22;5600;50.864;6.102;2022-09-16T21:30:19;10.40;99.90
11093;DHT22;5600;50.864;6.102;2022-09-16T21:33:19;10.30;99.90
11093;DHT22;5600;50.864;6.102;2022-09-16T21:36:22;10.30;99.90
11093;DHT22;5600;50.864;6.102;2022-09-16T21:39:22;10.30;99.90
11093;DHT22;5600;50.864;6.102;2022-09-16T21:42:23;10.30;99.90
11093;DHT22;5600;50.864;6.102;2022-09-16T21:45:24;10.20;99.90
11093;DHT22;5600;50.864;6.102;2022-09-16T21:48:25;10.20;99.90
11093;DHT22;5600;50.864;6.102;2022-09-16T21:51:33;10.30;99.90
11093;DHT22;5600;50.864;6.102;2022-09-16T21:54:34;10.30;99.90
11093;DHT22;5600;50.864;6.102;2022-09-16T21:57:35;10.20;99.90
11093;DHT22;5600;50.864;6.102;2022-09-16T22:00:36;10.10;99.90
11093;DHT22;5600;50.864;6.102;2022-09-16T22:03:38;10.10;99.90
11093;DHT22;5600;50.864;6.102;2022-09-16T22:06:39;10.20;99.90